»·PEaware :: SWA2085 KPHX-KSFO

SWA2085 :: KPHX-KSFO

FLIGHT INFORMATION

Flight Status: Arrived
Operator:
Southwest Airlines
More flights by this operator :: More flights under this callsign
Pilot: Will K. (13011)
Aircraft: BOEING 737-700
(B737)
More flights by this aircraft type
Origin: KPHX Phoenix Sky Harbor Intl
United States
Destination: KSFO San Francisco Intl
United States
More flights between these airports :: More routes between these airports
Route: KEENS2 HRRBR CURIV J212 DECAS PMD AVE MAKRS SERFR SERFR3
File this flight plan on PilotEdge
Remarks:
Altitude:
(Current/Filed)
34,000ft
Speed:
(Current/Filed)
460kts
Departed: 02-Oct-18 04:17 PM
Arrived: 02-Oct-18 05:53 PM
Distance/Time
Traveled:
565nm/1:36
Distance/Time
To Go:
Arrived

Flight Plot

Page will automatically refresh every two minutes.

Flight plan parsing failed; only flown route is shown


Map Options




Map Legend


Flown Route
Filed Route
Departure Airport
Arrival Airport
Navaid (VOR, NDB)
Fix

Horizontal Profiles

Position Reports

Time Latitude Longitude Heading Altitude Ground
Speed
02-Oct-18 15:43 33.433383 -111.999338 1 1143ft 0kts
02-Oct-18 15:44 33.433383 -111.999338 1 1143ft 0kts
02-Oct-18 15:45 33.433383 -111.999338 1 1143ft 0kts
02-Oct-18 15:46 33.433383 -111.999338 1 1143ft 0kts
02-Oct-18 15:47 33.433383 -111.999338 1 1143ft 0kts
02-Oct-18 15:48 33.433383 -111.999338 1 1143ft 0kts
02-Oct-18 15:49 33.433383 -111.999338 1 1143ft 0kts
02-Oct-18 15:50 33.433383 -111.999338 1 1143ft 0kts
02-Oct-18 15:51 33.433383 -111.999338 1 1143ft 0kts
02-Oct-18 15:52 33.433383 -111.999338 1 1143ft 0kts
02-Oct-18 15:53 33.433383 -111.999338 1 1143ft 0kts
02-Oct-18 15:54 33.433383 -111.999338 1 1143ft 0kts
02-Oct-18 15:55 33.433383 -111.999338 1 1143ft 0kts
02-Oct-18 15:56 33.433383 -111.999338 1 1143ft 0kts
02-Oct-18 15:57 33.433383 -111.999338 1 1143ft 0kts
02-Oct-18 15:58 33.433383 -111.999338 1 1143ft 0kts
02-Oct-18 15:59 33.433383 -111.999338 1 1143ft 0kts
02-Oct-18 16:00 33.433383 -111.999338 1 1143ft 0kts
02-Oct-18 16:01 33.433383 -111.999338 1 1143ft 0kts
02-Oct-18 16:02 33.433383 -111.999338 1 1143ft 0kts
02-Oct-18 16:03 33.432950 -111.999351 1 1143ft 2kts
02-Oct-18 16:04 33.432530 -111.999364 1 1143ft 0kts
02-Oct-18 16:05 33.432530 -111.999364 1 1143ft 0kts
02-Oct-18 16:06 33.432532 -111.999364 1 1143ft 0kts
02-Oct-18 16:07 33.432650 -111.999360 1 1143ft 0kts
02-Oct-18 16:08 33.432650 -111.999360 1 1143ft 0kts
02-Oct-18 16:09 33.432663 -111.999361 358 1142ft 0kts
02-Oct-18 16:10 33.432810 -112.000216 263 1143ft 5kts
02-Oct-18 16:11 33.432122 -112.003099 270 1143ft 12kts
02-Oct-18 16:12 33.432125 -112.008615 270 1143ft 15kts
02-Oct-18 16:13 33.432119 -112.014171 270 1143ft 17kts
02-Oct-18 16:14 33.432122 -112.018998 270 1143ft 15kts
02-Oct-18 16:15 33.432120 -112.024227 269 1143ft 11kts
02-Oct-18 16:16 33.432009 -112.026822 225 1143ft 0kts
02-Oct-18 16:17 33.432009 -112.026822 225 1143ft 0kts
02-Oct-18 16:18 33.431016 -112.026558 86 1143ft 0kts
02-Oct-18 16:19 33.431089 -112.007363 92 1156ft 164kts
02-Oct-18 16:20 33.431713 -111.941961 88 3215ft 233kts
02-Oct-18 16:21 33.419533 -111.863731 132 6568ft 251kts
02-Oct-18 16:22 33.360097 -111.864737 232 10209ft 247kts
02-Oct-18 16:23 33.356888 -111.946871 275 13557ft 262kts
02-Oct-18 16:24 33.367877 -112.041832 276 15508ft 327kts
02-Oct-18 16:25 33.385279 -112.158581 276 17501ft 370kts
02-Oct-18 16:26 33.403845 -112.282467 276 20042ft 386kts
02-Oct-18 16:27 33.422790 -112.411517 276 22254ft 401kts
02-Oct-18 16:28 33.442140 -112.545327 275 24183ft 415kts
02-Oct-18 16:29 33.451503 -112.683490 266 26009ft 419kts
02-Oct-18 16:30 33.457692 -112.824618 275 27641ft 433kts
02-Oct-18 16:31 33.483830 -112.967035 277 29045ft 442kts
02-Oct-18 16:32 33.510596 -113.111451 276 30685ft 440kts
02-Oct-18 16:33 33.537180 -113.253028 276 32664ft 430kts
02-Oct-18 16:34 33.562543 -113.391720 275 33900ft 428kts
02-Oct-18 16:35 33.587860 -113.530470 275 33903ft 424kts
02-Oct-18 16:36 33.613718 -113.668445 275 33895ft 423kts
02-Oct-18 16:37 33.639107 -113.806252 275 33898ft 424kts
02-Oct-18 16:38 33.664447 -113.944271 275 33888ft 423kts
02-Oct-18 16:39 33.689529 -114.082027 274 33876ft 422kts
02-Oct-18 16:40 33.714859 -114.220085 275 33867ft 423kts
02-Oct-18 16:41 33.739846 -114.357863 274 33861ft 422kts
02-Oct-18 16:42 33.764448 -114.495726 274 33852ft 422kts
02-Oct-18 16:43 33.779122 -114.634045 266 33852ft 414kts
02-Oct-18 16:44 33.786312 -114.771953 266 33851ft 413kts
02-Oct-18 16:45 33.793803 -114.910045 266 33852ft 413kts
02-Oct-18 16:46 33.801608 -115.047309 266 33855ft 412kts
02-Oct-18 16:47 33.809457 -115.185070 265 33855ft 411kts
02-Oct-18 16:48 33.816680 -115.322260 265 33856ft 410kts
02-Oct-18 16:49 33.827983 -115.459134 275 33856ft 420kts
02-Oct-18 16:50 33.868061 -115.593888 281 33857ft 429kts
02-Oct-18 16:51 33.910736 -115.727930 281 33861ft 429kts
02-Oct-18 16:52 33.953376 -115.861828 281 33867ft 429kts
02-Oct-18 16:53 33.996303 -115.995723 281 33883ft 428kts
02-Oct-18 16:54 34.038988 -116.130040 281 33903ft 428kts
02-Oct-18 16:55 34.081328 -116.264090 280 33923ft 428kts
02-Oct-18 16:56 34.123518 -116.398288 280 33943ft 427kts
02-Oct-18 16:57 34.165263 -116.531687 280 33978ft 427kts
02-Oct-18 16:58 34.207279 -116.666573 280 34057ft 428kts
02-Oct-18 16:59 34.248966 -116.801009 280 34143ft 427kts
02-Oct-18 17:00 34.290449 -116.935391 280 34178ft 426kts
02-Oct-18 17:01 34.331852 -117.070131 280 34123ft 427kts
02-Oct-18 17:02 34.373089 -117.204943 279 34048ft 427kts
02-Oct-18 17:03 34.414157 -117.339819 279 33977ft 427kts
02-Oct-18 17:04 34.455035 -117.474695 279 33961ft 427kts
02-Oct-18 17:05 34.495920 -117.610205 279 33959ft 427kts
02-Oct-18 17:06 34.536738 -117.745491 279 33965ft 427kts
02-Oct-18 17:07 34.577254 -117.881045 279 33967ft 427kts
02-Oct-18 17:08 34.617438 -118.016611 279 33966ft 427kts
02-Oct-18 17:09 34.676604 -118.146633 292 33971ft 447kts
02-Oct-18 17:10 34.745006 -118.273225 292 33979ft 447kts
02-Oct-18 17:11 34.801571 -118.378283 292 33990ft 447kts
02-Oct-18 17:12 34.881541 -118.526105 292 34020ft 447kts
02-Oct-18 17:13 34.938535 -118.631995 292 34032ft 448kts
02-Oct-18 17:14 35.006701 -118.759247 292 34022ft 448kts
02-Oct-18 17:15 35.074678 -118.886668 292 33996ft 448kts
02-Oct-18 17:16 35.141390 -119.012231 292 33949ft 448kts
02-Oct-18 17:17 35.208970 -119.139827 292 33879ft 449kts
02-Oct-18 17:18 35.276729 -119.268258 292 33851ft 449kts
02-Oct-18 17:19 35.344539 -119.397264 292 33853ft 449kts
02-Oct-18 17:20 35.412065 -119.526224 292 33867ft 450kts
02-Oct-18 17:21 35.479565 -119.655466 292 33844ft 451kts
02-Oct-18 17:22 35.547048 -119.784999 292 33841ft 450kts
02-Oct-18 17:23 35.614256 -119.915115 292 33847ft 451kts
02-Oct-18 17:24 35.654238 -120.053713 269 33869ft 420kts
02-Oct-18 17:25 35.668491 -120.195701 267 33880ft 418kts
02-Oct-18 17:26 35.685473 -120.337755 276 33877ft 429kts
02-Oct-18 17:27 35.733041 -120.475531 285 33887ft 441kts
02-Oct-18 17:28 35.785332 -120.613260 285 32926ft 445kts
02-Oct-18 17:29 35.837910 -120.751812 286 31928ft 449kts
02-Oct-18 17:30 35.890945 -120.891296 286 30925ft 446kts
02-Oct-18 17:31 35.942860 -121.028661 287 29926ft 441kts
02-Oct-18 17:32 35.994196 -121.165333 287 28924ft 435kts
02-Oct-18 17:33 36.044426 -121.300353 288 27924ft 431kts
02-Oct-18 17:34 36.125673 -121.410865 322 26920ft 448kts
02-Oct-18 17:35 36.230553 -121.491669 324 25921ft 442kts
02-Oct-18 17:36 36.334181 -121.572268 323 24917ft 435kts
02-Oct-18 17:37 36.435099 -121.651663 324 23923ft 429kts
02-Oct-18 17:38 36.535056 -121.730402 324 22617ft 423kts
02-Oct-18 17:39 36.632120 -121.807240 324 19883ft 405kts
02-Oct-18 17:40 36.725340 -121.880584 328 16821ft 389kts
02-Oct-18 17:41 36.827274 -121.918610 347 13840ft 376kts
02-Oct-18 17:42 36.927582 -121.946180 346 11055ft 362kts
02-Oct-18 17:43 37.021011 -121.978997 341 9773ft 327kts
02-Oct-18 17:44 37.101064 -122.010957 342 8822ft 295kts
02-Oct-18 17:45 37.178076 -122.041278 342 8027ft 287kts
02-Oct-18 17:46 37.255139 -122.071560 342 8022ft 289kts
02-Oct-18 17:47 37.331284 -122.101494 342 7255ft 284kts
02-Oct-18 17:48 37.405800 -122.129542 345 6056ft 273kts
02-Oct-18 17:49 37.470508 -122.151537 344 5570ft 211kts
02-Oct-18 17:50 37.522969 -122.169653 341 4641ft 199kts
02-Oct-18 17:51 37.555355 -122.223887 295 2351ft 192kts
02-Oct-18 17:52 37.576426 -122.274259 295 1492ft 137kts
02-Oct-18 17:53 37.593300 -122.314447 297 812ft 125kts
02-Oct-18 17:54 37.609568 -122.353273 298 150ft 123kts
02-Oct-18 17:55 37.619141 -122.376489 252 21ft 22kts
02-Oct-18 17:56 37.618963 -122.377969 266 21ft 2kts
02-Oct-18 17:57 37.617938 -122.380271 264 21ft 8kts
02-Oct-18 17:58 37.617889 -122.380541 254 21ft 0kts
02-Oct-18 17:59 37.617889 -122.380541 254 21ft 0kts
02-Oct-18 18:00 37.617889 -122.380541 254 21ft 0kts
02-Oct-18 18:01 37.617889 -122.380541 254 21ft 0kts
02-Oct-18 18:02 37.617889 -122.380541 254 21ft 0kts
02-Oct-18 18:03 37.617889 -122.380541 254 21ft 0kts
02-Oct-18 18:04 37.617889 -122.380541 254 21ft 0kts
02-Oct-18 18:05 37.617889 -122.380541 254 21ft 0kts
02-Oct-18 18:06 37.617889 -122.380541 254 21ft 0kts
02-Oct-18 18:07 37.617889 -122.380541 254 21ft 0kts
02-Oct-18 18:08 37.617889 -122.380541 254 21ft 0kts

Navigation Log

Ident Type
Flight plan parsing failed, navigation log unavailable